Strona główna
METAR-TAF:

METAR-TAF

Lotnisko :

Defiance Memorial Airport

Defiance, Ohio, Stany Zjednoczone

Szerokość geograficzna: 41-20-11N, Długość geograficzna: 084-25-46W, wysokość: 215 m

Aktualna obserwacja pogody

Raport powstał 28 minut temu, godzina 12:19 UTC
Wiatr 7 kt od północno-północny wschód
Temperatura 8°C
Wilgotność 87%
Ciśnienie 1007 hPa
Widzialność: 2.4 km
Zachmurzenie całkowite na wysokości 300 ft
zamglenie

METAR: KDFI 281219Z AUTO 03007KT 1 1/2SM BR OVC003 08/06 A2975 RMK AO2 VIS 1V2 RAB1158E06 P0000 T00780061

czas: 08:47 (12:47 UTC)


TAF: brakujący

Obserwacja i prognoza pogody dla ponad 4000 lotnisk (raport METAR i TAF).

Dostępne stacje oznaczono żółtymi i czerwonymi punktami na mapie.

Najedź kursorem aby zobaczyć nazwę stacji.

Kliknij aby zobaczyć obserwacje i prognozy pogody.

Aby zmienić mapę: kliknij na zielony przycisk z czarnym krzyżykiem, aby powiększyć; na zielony przycisk z myślnikiem, aby pomniejszyć; na zielone strzałki, aby przejść do map sąsiednich.


METAR-TAF: